Time;durP1;ratioP1;P1;durP2;ratioP2;P2;SDS_P1;SDS_P2;PMS_P1;PMS_P2;Temp;Humidity;BMP_temperature;BMP_pressure;BME280_temperature;BME280_humidity;BME280_pressure;Samples;Min_cycle;Max_cycle;Signal;HPM_P1;HPM_P2
2022/08/17 00:00:13;;;;;;;117.88;73.47;;;;;;;21.31;79.20;100942.63;5019639;28;20483;-74
2022/08/17 00:03:14;;;;;;;120.25;72.95;;;;;;;21.28;79.59;100943.94;5034179;28;20029;-74
2022/08/17 00:05:47;;;;;;;113.53;69.68;;;;;;;21.34;79.14;100936.63;5015171;28;20041;-75
2022/08/17 00:08:14;;;;;;;120.45;69.90;;;;;;;21.32;79.41;100933.31;5020044;28;20461;-73
2022/08/17 00:10:41;;;;;;;111.85;68.35;;;;;;;21.28;79.59;100930.25;5020182;28;20059;-75
2022/08/17 00:13:09;;;;;;;114.80;70.70;;;;;;;21.24;80.12;100932.66;5022132;28;20026;-75
2022/08/17 00:15:35;;;;;;;121.95;73.95;;;;;;;21.24;80.01;100929.91;5034504;28;20164;-75
2022/08/17 00:18:00;;;;;;;126.40;77.53;;;;;;;21.18;80.14;100930.94;5019944;28;20076;-74
2022/08/17 00:20:25;;;;;;;125.82;73.13;;;;;;;21.16;80.74;100919.41;5040104;28;20025;-74
2022/08/17 00:23:02;;;;;;;114.47;73.03;;;;;;;21.13;81.36;100919.91;5020447;28;20035;-74
2022/08/17 00:25:27;;;;;;;121.30;72.03;;;;;;;21.11;81.42;100922.06;5036918;28;20391;-75
2022/08/17 00:27:52;;;;;;;118.63;71.93;;;;;;;21.13;81.60;100925.38;5028383;28;20113;-75
2022/08/17 00:30:18;;;;;;;120.05;73.97;;;;;;;21.15;81.80;100917.75;5037356;28;20029;-75
2022/08/17 00:32:45;;;;;;;124.10;73.60;;;;;;;21.10;81.64;100904.00;5030779;28;20112;-74
2022/08/17 00:35:13;;;;;;;118.30;71.00;;;;;;;21.16;81.92;100915.84;5042723;28;20453;-75
2022/08/17 00:37:39;;;;;;;110.20;68.35;;;;;;;21.16;81.89;100908.44;5042548;28;20036;-74
2022/08/17 00:40:05;;;;;;;106.07;67.53;;;;;;;21.15;81.85;100909.53;5021715;28;20033;-75
2022/08/17 00:42:31;;;;;;;111.00;67.00;;;;;;;21.15;81.99;100912.28;5040412;28;20053;-75
2022/08/17 00:44:56;;;;;;;114.68;69.00;;;;;;;21.18;82.13;100910.94;5038019;28;20118;-75
2022/08/17 00:47:21;;;;;;;109.43;67.50;;;;;;;21.16;82.15;100902.16;5040057;28;20036;-75
2022/08/17 00:49:47;;;;;;;115.28;71.07;;;;;;;21.10;82.21;100904.00;5040306;28;20088;-75
2022/08/17 00:52:15;;;;;;;113.03;71.03;;;;;;;21.07;82.27;100912.69;5025532;28;20021;-74
2022/08/17 00:54:42;;;;;;;120.05;69.75;;;;;;;21.02;82.27;100912.63;5007855;28;20089;-74
2022/08/17 00:57:10;;;;;;;107.65;70.22;;;;;;;20.98;82.85;100908.72;5019876;28;20124;-74
2022/08/17 00:59:39;;;;;;;118.88;75.63;;;;;;;20.92;83.28;100896.03;5008020;28;20071;-75
2022/08/17 01:02:05;;;;;;;124.10;79.03;;;;;;;20.91;83.40;100899.88;5020923;28;20036;-74
2022/08/17 01:04:31;;;;;;;128.40;79.68;;;;;;;20.90;83.62;100887.25;5044237;28;20396;-75
2022/08/17 01:06:57;;;;;;;127.97;78.00;;;;;;;20.83;83.67;100891.00;5024713;28;20021;-75
2022/08/17 01:09:23;;;;;;;123.15;77.50;;;;;;;20.77;84.02;100883.78;5026934;28;20119;-75
2022/08/17 01:11:51;;;;;;;122.80;73.07;;;;;;;20.75;84.47;100888.69;5034620;28;20033;-75
2022/08/17 01:14:19;;;;;;;120.20;73.70;;;;;;;20.75;85.22;100913.28;5018362;28;20318;-75
2022/08/17 01:16:47;;;;;;;147.85;85.72;;;;;;;20.67;87.75;100907.38;5027645;28;20376;-74
2022/08/17 01:19:25;;;;;;;134.63;84.70;;;;;;;20.41;90.81;100914.31;5032652;28;20496;-75
2022/08/17 01:21:54;;;;;;;;;;;;;;;20.11;92.67;100939.94;5032707;28;20041;-75
2022/08/17 01:24:19;;;;;;;156.73;92.63;;;;;;;19.84;96.05;101006.06;5018939;28;20312;-75
2022/08/17 01:26:45;;;;;;;161.88;95.53;;;;;;;19.63;98.33;101002.00;5014742;28;20025;-76
2022/08/17 01:29:11;;;;;;;160.55;95.60;;;;;;;19.60;99.72;101013.41;5014527;28;20039;-77
2022/08/17 01:31:40;;;;;;;153.60;90.07;;;;;;;19.59;100.00;101013.63;5017840;28;20430;-77
2022/08/17 01:34:09;;;;;;;167.80;95.22;;;;;;;19.61;100.00;101028.72;5018262;28;20049;-77
2022/08/17 01:36:36;;;;;;;158.38;93.65;;;;;;;19.67;100.00;101037.91;5008877;28;20057;-77
2022/08/17 01:39:03;;;;;;;171.00;98.50;;;;;;;19.71;100.00;101050.00;5006239;28;20054;-76
2022/08/17 01:41:29;;;;;;;154.23;90.78;;;;;;;19.69;100.00;101057.59;5014054;28;20041;-77
2022/08/17 01:44:03;;;;;;;89.28;50.95;;;;;;;19.60;100.00;101073.47;5015419;28;20032;-73
2022/08/17 01:46:32;;;;;;;85.22;42.08;;;;;;;19.47;99.48;101079.97;5030632;28;20037;-75
2022/08/17 01:48:58;;;;;;;82.45;41.90;;;;;;;19.33;98.28;101061.34;5012890;28;20040;-74
2022/08/17 01:51:31;;;;;;;74.68;38.60;;;;;;;19.17;98.11;101054.63;5014744;28;20033;-75
2022/08/17 01:53:58;;;;;;;83.95;39.85;;;;;;;19.06;97.61;101048.09;5015213;28;20026;-75
2022/08/17 01:56:24;;;;;;;93.32;42.92;;;;;;;18.95;98.43;101036.09;5034028;28;20331;-76
2022/08/17 01:58:50;;;;;;;116.68;43.08;;;;;;;18.71;99.11;101046.06;5009024;28;20424;-76
2022/08/17 02:01:19;;;;;;;107.70;44.03;;;;;;;18.53;100.00;101044.19;5012424;28;20266;-75
2022/08/17 02:03:45;;;;;;;80.85;37.60;;;;;;;18.39;100.00;101042.72;5015256;28;20030;-77
2022/08/17 02:06:10;;;;;;;89.82;41.08;;;;;;;18.33;100.00;101057.25;5017113;28;20026;-75
2022/08/17 02:08:36;;;;;;;101.88;43.88;;;;;;;18.36;100.00;101062.25;4997505;28;20025;-76
2022/08/17 02:11:06;;;;;;;104.85;41.78;;;;;;;18.34;100.00;101062.47;5032437;28;20531;-77
2022/08/17 02:13:32;;;;;;;93.88;41.70;;;;;;;18.38;100.00;101041.06;5014373;28;20026;-76
2022/08/17 02:15:58;;;;;;;94.32;43.85;;;;;;;18.32;100.00;101014.72;5032845;28;20037;-76
2022/08/17 02:18:24;;;;;;;93.47;43.83;;;;;;;18.30;100.00;101005.91;5033181;28;20052;-75
2022/08/17 02:20:50;;;;;;;88.00;39.63;;;;;;;18.23;100.00;101002.47;4994118;28;20453;-75
2022/08/17 02:23:15;;;;;;;88.78;39.78;;;;;;;18.18;100.00;100984.09;5010744;28;20080;-74
2022/08/17 02:25:43;;;;;;;85.78;41.15;;;;;;;18.17;100.00;100983.25;4996851;28;20036;-75
2022/08/17 02:28:09;;;;;;;76.63;42.22;;;;;;;18.19;100.00;100981.16;5031007;28;20103;-75
2022/08/17 02:30:35;;;;;;;86.97;45.25;;;;;;;18.18;100.00;100971.28;5014313;28;20025;-75
2022/08/17 02:35:46;;;;;;;89.20;39.67;;;;;;;18.25;100.00;100984.00;5028068;23;20054;-38
2022/08/17 02:38:11;;;;;;;71.03;35.67;;;;;;;18.20;100.00;100981.97;4990928;28;20037;-38
2022/08/17 02:40:39;;;;;;;76.90;36.00;;;;;;;18.23;100.00;100977.94;4991145;28;20110;-37
2022/08/17 02:43:06;;;;;;;91.90;36.45;;;;;;;18.27;100.00;100974.53;4991174;28;20045;-36
2022/08/17 02:45:31;;;;;;;77.88;35.53;;;;;;;18.31;100.00;100974.91;4996778;28;20498;-36
2022/08/17 02:47:57;;;;;;;64.45;35.35;;;;;;;18.30;100.00;100968.63;5009623;28;20026;-36
2022/08/17 02:50:23;;;;;;;78.82;35.53;;;;;;;18.35;100.00;100973.38;5010461;28;20113;-37
2022/08/17 02:52:49;;;;;;;70.05;32.97;;;;;;;18.31;100.00;100970.28;5010146;28;20117;-36
2022/08/17 02:55:28;;;;;;;76.18;36.80;;;;;;;18.31;100.00;100980.34;5009459;28;20563;-37
2022/08/17 02:57:54;;;;;;;73.13;35.47;;;;;;;18.30;100.00;100986.84;5010149;28;20390;-36
2022/08/17 03:00:24;;;;;;;64.95;33.40;;;;;;;18.30;100.00;100992.31;5009927;28;20017;-37
2022/08/17 03:02:50;;;;;;;65.55;33.63;;;;;;;18.33;100.00;100995.41;5008689;28;20112;-36
2022/08/17 03:05:19;;;;;;;65.07;29.20;;;;;;;18.36;100.00;100988.69;5007504;28;20117;-36
2022/08/17 03:07:44;;;;;;;53.85;29.55;;;;;;;18.41;100.00;100986.91;5009980;28;20404;-37
2022/08/17 03:10:10;;;;;;;50.55;28.23;;;;;;;18.41;100.00;100986.09;5009963;28;20038;-37
2022/08/17 03:12:37;;;;;;;54.83;27.25;;;;;;;18.41;100.00;100980.66;5009968;28;20050;-36
2022/08/17 03:15:05;;;;;;;62.08;29.15;;;;;;;18.46;100.00;100980.78;5009512;28;20029;-36
2022/08/17 03:17:30;;;;;;;55.42;28.33;;;;;;;18.49;100.00;100984.94;5010028;28;20113;-37
2022/08/17 03:19:55;;;;;;;64.68;28.70;;;;;;;18.50;100.00;100984.69;5009280;28;20021;-36
2022/08/17 03:22:21;;;;;;;64.20;30.20;;;;;;;18.45;100.00;100979.09;5010039;28;20131;-36
2022/08/17 03:24:46;;;;;;;65.65;30.60;;;;;;;18.48;100.00;100975.91;5008725;28;20426;-37
2022/08/17 03:27:12;;;;;;;55.90;29.80;;;;;;;18.53;100.00;100967.88;5008623;28;20452;-37
2022/08/17 03:29:38;;;;;;;55.78;28.23;;;;;;;18.58;100.00;100969.91;5009007;28;20100;-37
2022/08/17 03:32:12;;;;;;;54.17;29.45;;;;;;;18.60;100.00;100962.34;5010223;28;20033;-36
2022/08/17 03:34:38;;;;;;;60.15;29.38;;;;;;;18.54;100.00;100946.94;5008647;28;20120;-37
2022/08/17 03:37:03;;;;;;;53.55;27.90;;;;;;;18.59;100.00;100953.34;5009864;28;20041;-36
2022/08/17 03:39:28;;;;;;;50.58;25.45;;;;;;;18.54;100.00;100947.75;5009774;28;20426;-37
2022/08/17 03:42:01;;;;;;;46.17;23.60;;;;;;;18.54;100.00;100949.66;5009821;28;20029;-36
2022/08/17 03:44:26;;;;;;;43.10;22.98;;;;;;;18.54;100.00;100953.19;5008948;28;20042;-36
2022/08/17 03:57:48;;;;;;;28.00;17.60;;;;;;;18.58;100.00;100965.28;5009439;28;20052;-37
2022/08/17 04:00:14;;;;;;;27.17;18.67;;;;;;;18.53;100.00;100951.53;5008994;28;20113;-36
2022/08/17 04:02:41;;;;;;;45.67;18.15;;;;;;;18.51;100.00;100947.38;5008174;28;20116;-36
2022/08/17 04:05:07;;;;;;;28.98;17.05;;;;;;;18.51;100.00;100958.28;5007840;28;20104;-38
2022/08/17 04:07:32;;;;;;;26.95;17.17;;;;;;;18.49;100.00;100958.53;5009236;28;20049;-36
2022/08/17 04:09:58;;;;;;;28.70;16.83;;;;;;;18.45;100.00;100957.31;5009854;28;20048;-36
2022/08/17 04:12:24;;;;;;;29.40;18.13;;;;;;;18.45;100.00;100954.56;5008461;28;20109;-36
2022/08/17 04:14:49;;;;;;;29.45;17.90;;;;;;;18.47;100.00;100951.63;5009907;28;20037;-36
2022/08/17 04:17:14;;;;;;;26.55;17.67;;;;;;;18.51;100.00;100942.78;5010111;28;20113;-36
2022/08/17 04:19:40;;;;;;;27.27;18.20;;;;;;;18.55;100.00;100943.94;5008674;28;20125;-36
2022/08/17 04:22:05;;;;;;;32.05;18.75;;;;;;;18.60;100.00;100941.34;5009476;28;20037;-36
2022/08/17 04:24:32;;;;;;;25.45;17.90;;;;;;;18.60;100.00;100946.00;5008693;28;20493;-37
2022/08/17 04:26:57;;;;;;;28.45;17.98;;;;;;;18.60;100.00;100952.25;5010179;28;20036;-35
2022/08/17 04:29:24;;;;;;;27.88;20.35;;;;;;;18.56;100.00;100944.78;5009197;28;20030;-35
2022/08/17 04:31:50;;;;;;;33.85;23.55;;;;;;;18.56;100.00;100947.50;5011804;28;20022;-37
2022/08/17 04:34:16;;;;;;;37.47;23.88;;;;;;;18.55;100.00;100965.75;5011614;28;20054;-37
2022/08/17 04:36:41;;;;;;;33.83;22.75;;;;;;;18.59;100.00;100955.25;5013099;28;20048;-37
2022/08/17 04:39:06;;;;;;;33.92;24.55;;;;;;;18.66;100.00;100966.84;5012963;28;20126;-37
2022/08/17 04:44:16;;;;;;;31.67;22.60;;;;;;;18.73;100.00;100955.88;5012287;28;20131;-36
2022/08/17 04:46:41;;;;;;;39.45;24.60;;;;;;;18.75;100.00;100946.41;5002868;28;20034;-37
2022/08/17 04:49:09;;;;;;;36.42;24.25;;;;;;;18.79;100.00;100949.50;4991128;28;20053;-37
2022/08/17 04:51:35;;;;;;;;;;;;;;;18.77;100.00;100952.47;5004799;28;20093;-37
2022/08/17 04:54:04;;;;;;;38.17;25.48;;;;;;;18.76;100.00;100947.25;5008037;28;19924;-36
2022/08/17 04:56:30;;;;;;;43.17;26.85;;;;;;;18.75;100.00;100937.41;5008217;28;20038;-37
2022/08/17 04:59:02;;;;;;;36.75;26.05;;;;;;;18.74;100.00;100932.97;5007347;28;20045;-36
2022/08/17 05:01:30;;;;;;;39.95;25.60;;;;;;;18.75;100.00;100931.97;5006776;28;20056;-37
2022/08/17 05:03:58;;;;;;;38.78;26.27;;;;;;;18.74;100.00;100925.63;5005435;28;20098;-38
2022/08/17 05:06:24;;;;;;;36.70;25.13;;;;;;;18.74;100.00;100930.25;5005181;28;20045;-37
2022/08/17 05:08:49;;;;;;;40.72;26.67;;;;;;;18.76;100.00;100928.97;5007553;28;20029;-37
2022/08/17 05:11:15;;;;;;;39.72;26.98;;;;;;;18.71;100.00;100933.44;5007328;28;20357;-36
2022/08/17 05:13:40;;;;;;;34.63;26.73;;;;;;;18.72;100.00;100930.50;5006313;28;20026;-36
2022/08/17 05:16:07;;;;;;;40.88;27.33;;;;;;;18.71;100.00;100934.28;5005421;28;20041;-37
2022/08/17 05:18:33;;;;;;;44.00;27.27;;;;;;;18.69;100.00;100938.28;5007624;28;20787;-36
2022/08/17 05:20:58;;;;;;;41.53;28.38;;;;;;;18.67;100.00;100940.41;5006043;28;20113;-37
2022/08/17 05:23:25;;;;;;;38.50;28.05;;;;;;;18.62;100.00;100952.88;5007991;28;20042;-37
2022/08/17 05:25:54;;;;;;;41.65;28.95;;;;;;;18.63;100.00;100959.97;5004913;28;20038;-37
2022/08/17 05:28:20;;;;;;;42.63;29.52;;;;;;;18.64;100.00;100964.38;5006643;28;20116;-37
2022/08/17 05:30:46;;;;;;;43.33;29.17;;;;;;;18.65;100.00;100971.47;5007166;28;20083;-36
2022/08/17 05:33:21;;;;;;;42.08;27.80;;;;;;;18.67;100.00;100968.53;5006548;28;20021;-38
2022/08/17 05:35:49;;;;;;;40.72;27.75;;;;;;;18.65;100.00;100976.94;5003817;28;20412;-36
2022/08/17 05:38:16;;;;;;;41.78;28.85;;;;;;;18.65;100.00;100971.47;5004435;28;20144;-37
2022/08/17 05:40:42;;;;;;;39.20;29.27;;;;;;;18.68;100.00;100980.28;5007121;28;20065;-37
2022/08/17 05:43:09;;;;;;;45.78;30.73;;;;;;;18.70;100.00;100975.41;5007029;28;20025;-36
2022/08/17 05:45:41;;;;;;;42.15;31.20;;;;;;;18.71;100.00;100977.91;5007193;28;20131;-37
2022/08/17 05:48:07;;;;;;;44.22;30.67;;;;;;;18.70;100.00;100992.59;5002021;28;20452;-37
2022/08/17 05:51:10;;;;;;;45.65;30.30;;;;;;;18.79;100.00;100985.78;5000734;28;20054;-35
2022/08/17 05:53:48;;;;;;;40.80;29.67;;;;;;;18.81;100.00;100986.38;4983488;28;20064;-37
2022/08/17 05:56:26;;;;;;;44.63;32.33;;;;;;;18.84;100.00;100987.81;5006774;28;20030;-38
2022/08/17 05:59:00;;;;;;;39.50;30.15;;;;;;;18.87;100.00;100984.59;5003089;28;20030;-37
2022/08/17 06:01:33;;;;;;;38.55;29.35;;;;;;;18.91;100.00;100985.81;5006312;28;20041;-37
2022/08/17 06:04:15;;;;;;;51.58;32.75;;;;;;;18.92;100.00;100979.28;5005029;28;20033;-36
2022/08/17 06:06:51;;;;;;;44.75;32.28;;;;;;;18.90;100.00;100992.31;5005067;28;20263;-36
2022/08/17 06:09:31;;;;;;;50.22;32.28;;;;;;;18.90;100.00;100992.31;5003904;28;20053;-36
2022/08/17 06:12:20;;;;;;;42.00;31.80;;;;;;;18.91;100.00;100985.81;5006159;28;20041;-36
2022/08/17 06:15:32;;;;;;;39.97;32.42;;;;;;;18.96;100.00;100988.69;5003979;28;20043;-36
2022/08/17 06:18:04;;;;;;;50.25;33.35;;;;;;;19.00;100.00;100984.41;5002745;28;20146;-36
2022/08/17 06:21:03;;;;;;;45.55;32.15;;;;;;;19.08;100.00;100997.69;5007956;28;20480;-38
2022/08/17 06:23:39;;;;;;;44.83;31.95;;;;;;;19.13;100.00;101001.63;4972358;28;20054;-35
2022/08/17 06:26:11;;;;;;;46.10;29.83;;;;;;;19.18;100.00;101001.75;5004538;28;20034;-37
2022/08/17 06:28:41;;;;;;;37.17;28.25;;;;;;;19.27;100.00;100994.88;4990274;28;20025;-36
2022/08/17 06:31:21;;;;;;;32.78;26.00;;;;;;;19.33;100.00;101010.31;5009944;28;20117;-37
2022/08/17 06:33:46;;;;;;;34.58;26.67;;;;;;;19.43;100.00;101006.97;5009070;28;20026;-37
2022/08/17 06:36:24;;;;;;;38.60;25.10;;;;;;;19.53;100.00;101016.25;5008676;28;20073;-37
2022/08/17 06:39:11;;;;;;;32.45;23.88;;;;;;;19.61;99.72;101009.59;5009180;28;20105;-37
2022/08/17 06:41:58;;;;;;;28.60;23.05;;;;;;;19.68;98.69;101014.97;5011905;28;20064;-36
2022/08/17 06:44:33;;;;;;;28.50;22.45;;;;;;;19.71;98.06;101009.03;5011910;28;20472;-34
2022/08/17 06:47:05;;;;;;;33.67;22.80;;;;;;;19.76;98.06;101006.44;5009280;28;20032;-37
2022/08/17 06:49:44;;;;;;;27.02;21.75;;;;;;;19.80;97.94;100999.44;5009741;28;20445;-37
2022/08/17 06:52:20;;;;;;;32.85;23.45;;;;;;;19.83;97.74;101003.59;5009770;28;20477;-37
2022/08/17 06:54:58;;;;;;;32.38;22.08;;;;;;;19.89;97.08;101008.91;5005319;28;20038;-37
2022/08/17 06:57:24;;;;;;;28.40;21.52;;;;;;;19.95;96.88;101007.94;5007118;28;20400;-36
2022/08/17 06:59:58;;;;;;;35.08;23.60;;;;;;;19.97;96.99;101009.59;5004733;28;20037;-36
2022/08/17 07:03:01;;;;;;;31.45;22.27;;;;;;;19.98;96.82;101016.72;5009583;28;20392;-37
2022/08/17 07:05:49;;;;;;;33.15;24.27;;;;;;;19.97;97.08;101013.16;4993451;28;20037;-36
2022/08/17 07:08:41;;;;;;;34.40;22.67;;;;;;;20.03;97.01;101011.38;5009058;28;20419;-37
2022/08/17 07:11:14;;;;;;;33.60;22.35;;;;;;;20.10;96.76;101023.00;5009527;28;20380;-36
2022/08/17 07:13:51;;;;;;;35.08;22.70;;;;;;;20.15;96.35;101012.19;5008911;28;20025;-35
2022/08/17 07:16:20;;;;;;;36.38;22.75;;;;;;;20.18;96.29;101023.44;5009542;28;20052;-34
2022/08/17 07:18:48;;;;;;;35.97;23.35;;;;;;;20.11;95.83;101030.94;5009009;28;20036;-34
2022/08/17 07:21:25;;;;;;;32.25;22.88;;;;;;;20.13;96.52;101027.97;5010535;28;20450;-35
2022/08/17 07:24:16;;;;;;;33.40;22.48;;;;;;;20.05;96.81;101025.63;5009262;28;20053;-36
2022/08/17 07:26:41;;;;;;;39.13;23.85;;;;;;;20.03;97.14;101036.78;5008349;28;20045;-34
2022/08/17 07:29:09;;;;;;;39.63;26.75;;;;;;;19.97;97.78;101026.81;5010297;28;20553;-36
2022/08/17 07:31:34;;;;;;;33.05;23.83;;;;;;;19.99;98.45;101027.44;5012417;28;20022;-35
2022/08/17 07:34:05;;;;;;;35.55;25.10;;;;;;;19.97;98.70;101037.75;5020452;28;20038;-36
2022/08/17 07:36:33;;;;;;;42.10;26.48;;;;;;;19.97;99.10;101039.66;5017081;28;20418;-37
2022/08/17 07:39:00;;;;;;;40.42;24.35;;;;;;;20.02;99.66;101042.50;5009865;28;20235;-37
2022/08/17 07:41:26;;;;;;;35.20;23.90;;;;;;;20.03;100.00;101046.88;5010403;28;20085;-36
2022/08/17 07:43:52;;;;;;;43.35;24.50;;;;;;;20.07;100.00;101046.19;5010270;28;20482;-37
2022/08/17 07:49:17;;;;;;;38.00;25.85;;;;;;;20.01;100.00;101054.47;5008986;28;20120;-39
2022/08/17 07:51:43;;;;;;;51.10;28.85;;;;;;;19.91;100.00;101046.91;5013594;28;20056;-41
2022/08/17 07:54:14;;;;;;;49.28;30.52;;;;;;;19.79;100.00;101043.34;5029704;28;20053;-41
2022/08/17 07:56:42;;;;;;;45.03;31.80;;;;;;;19.73;100.00;101042.41;5013323;28;20357;-43
2022/08/17 07:59:18;;;;;;;47.25;32.13;;;;;;;19.65;100.00;101046.28;5009912;28;20274;-40
2022/08/17 08:01:57;;;;;;;49.75;34.47;;;;;;;19.68;100.00;101048.56;5008767;28;20026;-38
2022/08/17 08:04:39;;;;;;;56.15;38.13;;;;;;;19.61;100.00;101056.00;5009964;28;20612;-41
2022/08/17 08:07:24;;;;;;;56.22;40.83;;;;;;;19.52;100.00;101062.91;5010565;28;20026;-41
2022/08/17 08:10:13;;;;;;;53.38;38.53;;;;;;;19.51;100.00;101061.25;5013132;28;20380;-41
2022/08/17 08:12:47;;;;;;;58.28;40.50;;;;;;;19.55;100.00;101056.13;4994376;28;20374;-38
2022/08/17 08:15:17;;;;;;;59.45;39.70;;;;;;;19.60;100.00;101062.56;4994140;28;20370;-39
2022/08/17 08:17:51;;;;;;;53.95;39.03;;;;;;;19.63;100.00;101067.53;5013652;28;20029;-38
2022/08/17 08:20:18;;;;;;;58.83;38.10;;;;;;;19.59;100.00;101057.31;5013741;28;20057;-38
2022/08/17 08:22:55;;;;;;;52.65;36.10;;;;;;;19.67;100.00;101051.56;5013560;28;20359;-40
2022/08/17 08:25:31;;;;;;;48.30;34.30;;;;;;;19.68;100.00;101055.94;5013708;28;20026;-39
2022/08/17 08:28:33;;;;;;;39.83;30.33;;;;;;;19.73;100.00;101054.16;5025112;28;20098;-39
2022/08/17 08:31:36;;;;;;;34.50;26.80;;;;;;;19.72;100.00;101049.78;5009823;28;20103;-38
2022/08/17 08:34:28;;;;;;;32.47;24.88;;;;;;;19.77;100.00;101065.41;5011630;28;20066;-38
2022/08/17 08:37:07;;;;;;;30.58;23.42;;;;;;;19.85;100.00;101062.38;4993738;28;20142;-38
2022/08/17 08:39:50;;;;;;;31.20;23.65;;;;;;;19.95;100.00;101059.84;5010713;28;20489;-38
2022/08/17 08:42:22;;;;;;;31.45;22.83;;;;;;;20.05;100.00;101061.16;5011709;28;20401;-36
2022/08/17 08:44:58;;;;;;;27.88;20.98;;;;;;;20.05;100.00;101066.59;5012862;28;20109;-37
2022/08/17 08:47:53;;;;;;;24.33;21.30;;;;;;;20.08;100.00;101066.13;5012901;28;20112;-36
2022/08/17 08:50:26;;;;;;;27.42;20.83;;;;;;;20.12;100.00;101072.78;4976017;28;20030;-35
2022/08/17 08:53:03;;;;;;;23.33;19.92;;;;;;;20.09;100.00;101082.28;4991619;28;20081;-35
2022/08/17 08:55:41;;;;;;;27.83;19.65;;;;;;;19.97;100.00;101108.78;5012624;28;20081;-35
2022/08/17 08:58:21;;;;;;;21.92;18.15;;;;;;;19.73;100.00;101135.25;5011167;28;21621;-35
2022/08/17 09:00:52;;;;;;;24.60;18.85;;;;;;;19.40;100.00;101158.41;4992078;28;20085;-34
2022/08/17 09:03:37;;;;;;;27.10;20.83;;;;;;;19.12;100.00;101158.22;4977724;28;20398;-37
2022/08/17 09:06:02;;;;;;;34.50;22.88;;;;;;;19.01;100.00;101165.25;4981120;28;20026;-37
2022/08/17 09:08:47;;;;;;;55.65;26.00;;;;;;;18.92;100.00;101167.47;5012604;28;20022;-36
2022/08/17 09:11:25;;;;;;;40.25;27.17;;;;;;;18.86;100.00;101165.66;5011351;28;20409;-34
2022/08/17 09:14:24;;;;;;;44.30;28.58;;;;;;;18.81;100.00;101155.44;5011078;28;20079;-35
2022/08/17 09:17:11;;;;;;;45.88;28.35;;;;;;;18.94;100.00;101159.91;5008970;28;20026;-36
2022/08/17 09:19:55;;;;;;;58.38;33.63;;;;;;;18.86;100.00;101168.41;5011412;28;20401;-36
2022/08/17 09:22:38;;;;;;;50.30;32.65;;;;;;;18.81;100.00;101160.91;5012273;28;20026;-38
2022/08/17 09:25:10;;;;;;;52.42;34.85;;;;;;;18.78;100.00;101157.81;5007999;28;20416;-41
2022/08/17 09:27:47;;;;;;;51.13;34.33;;;;;;;18.80;100.00;101155.66;5010256;28;20465;-44
2022/08/17 09:30:13;;;;;;;48.08;31.75;;;;;;;18.80;100.00;101167.41;5010064;28;20026;-46
2022/08/17 09:32:45;;;;;;;46.75;31.90;;;;;;;18.80;100.00;101163.84;5012187;28;20032;-44
2022/08/17 09:35:14;;;;;;;46.08;30.38;;;;;;;18.91;100.00;101157.63;5010742;28;20046;-43
2022/08/17 09:38:16;;;;;;;46.35;31.17;;;;;;;19.01;100.00;101163.38;5012031;28;20022;-43
2022/08/17 09:40:55;;;;;;;39.35;28.65;;;;;;;19.04;100.00;101160.19;4978796;28;20132;-44
2022/08/17 09:43:34;;;;;;;36.47;24.83;;;;;;;19.06;100.00;101152.59;5011345;28;20065;-44
2022/08/17 09:46:03;;;;;;;35.85;23.67;;;;;;;19.09;100.00;101151.31;4992038;28;20037;-44
2022/08/17 09:48:40;;;;;;;29.13;22.05;;;;;;;19.09;100.00;101156.78;4974476;28;20038;-43
2022/08/17 09:51:13;;;;;;;29.08;21.58;;;;;;;19.16;100.00;101156.66;4991143;28;20132;-44
2022/08/17 09:53:38;;;;;;;25.70;18.45;;;;;;;19.17;100.00;101142.81;5027214;28;20121;-43
2022/08/17 09:56:27;;;;;;;23.40;17.30;;;;;;;19.18;100.00;101132.72;5012790;28;20030;-43
2022/08/17 09:59:08;;;;;;;22.60;16.13;;;;;;;19.17;100.00;101125.56;5012254;28;20061;-42
2022/08/17 10:01:39;;;;;;;17.88;15.18;;;;;;;19.22;100.00;101126.56;5010949;28;20041;-42
2022/08/17 10:04:18;;;;;;;18.67;16.02;;;;;;;19.30;100.00;101125.41;5009130;28;20125;-42
2022/08/17 10:06:54;;;;;;;21.50;17.52;;;;;;;19.39;100.00;101126.72;5011481;28;20504;-41
2022/08/17 10:09:22;;;;;;;22.50;18.52;;;;;;;19.44;100.00;101126.84;5011480;28;20088;-42
2022/08/17 10:12:18;;;;;;;23.75;18.27;;;;;;;19.48;100.00;101128.06;5011255;28;20097;-42
2022/08/17 10:15:03;;;;;;;21.20;16.40;;;;;;;19.54;100.00;101126.28;5009143;28;20034;-42
2022/08/17 10:17:49;;;;;;;21.10;16.52;;;;;;;19.48;100.00;101125.34;5011345;28;20113;-42
2022/08/17 10:20:32;;;;;;;15.75;13.60;;;;;;;19.41;100.00;101131.97;5010338;28;20517;-42
2022/08/17 10:26:12;;;;;;;15.30;13.70;;;;;;;19.32;100.00;101130.63;5009871;28;20104;-41
2022/08/17 10:28:39;;;;;;;;;;;;;;;19.29;100.00;101134.66;5010377;28;20037;-42
2022/08/17 10:31:07;;;;;;;15.10;12.35;;;;;;;19.21;100.00;101137.72;5000746;28;19993;-42
2022/08/17 10:34:07;;;;;;;15.82;12.18;;;;;;;19.17;100.00;101129.16;5009119;28;20030;-42
2022/08/17 10:36:55;;;;;;;16.67;13.30;;;;;;;19.14;100.00;101126.03;5008339;28;20052;-42
2022/08/17 10:39:33;;;;;;;16.83;13.82;;;;;;;19.15;100.00;101128.56;5010651;28;20091;-41
2022/08/17 10:41:59;;;;;;;;;;;;;;;19.21;100.00;101129.53;5007683;28;20029;-42
2022/08/17 10:44:36;;;;;;;16.33;14.63;;;;;;;19.19;100.00;101124.28;4973809;28;19956;-41
2022/08/17 10:47:07;;;;;;;19.15;16.33;;;;;;;19.20;100.00;101120.50;4991297;28;20144;-42
2022/08/17 10:49:52;;;;;;;19.80;17.20;;;;;;;19.26;100.00;101118.75;5002556;28;20041;-41
2022/08/17 10:52:27;;;;;;;22.17;19.83;;;;;;;19.35;100.00;101120.06;5011194;28;20068;-42
2022/08/17 10:54:58;;;;;;;23.02;20.45;;;;;;;19.41;100.00;101124.59;5003135;28;20308;-42
2022/08/17 10:57:30;;;;;;;20.50;18.08;;;;;;;19.56;100.00;101115.13;5005615;28;20042;-42
2022/08/17 10:59:57;;;;;;;24.05;20.42;;;;;;;19.62;100.00;101112.28;5006624;28;20041;-42
2022/08/17 11:02:48;;;;;;;22.42;19.83;;;;;;;19.77;100.00;101124.69;5007273;28;20445;-42
2022/08/17 11:05:19;;;;;;;23.75;18.70;;;;;;;19.86;100.00;101126.84;5010451;28;20026;-42
2022/08/17 11:07:51;;;;;;;24.00;19.60;;;;;;;20.00;100.00;101126.59;5009069;28;20030;-41
2022/08/17 11:10:47;;;;;;;26.42;21.35;;;;;;;20.04;100.00;101125.88;5009674;28;20139;-41
2022/08/17 11:13:16;;;;;;;27.27;21.17;;;;;;;20.14;100.00;101133.47;5009217;28;20038;-42
2022/08/17 11:15:49;;;;;;;26.63;20.23;;;;;;;20.29;100.00;101139.28;5008041;28;20050;-41
2022/08/17 11:18:17;;;;;;;23.45;19.98;;;;;;;20.35;100.00;101138.34;5005486;28;20370;-41
2022/08/17 11:20:54;;;;;;;24.88;21.13;;;;;;;20.48;100.00;101137.22;5010554;28;20034;-41
2022/08/17 11:23:47;;;;;;;26.20;20.40;;;;;;;20.64;100.00;101141.16;5007811;28;20502;-42
2022/08/17 11:26:26;;;;;;;27.85;22.00;;;;;;;20.75;100.00;101143.03;5007875;28;20084;-42
2022/08/17 11:28:57;;;;;;;28.30;22.15;;;;;;;20.88;100.00;101146.56;5009833;28;20038;-41
2022/08/17 11:31:45;;;;;;;27.73;21.55;;;;;;;20.99;100.00;101140.22;5009277;28;20044;-41
2022/08/17 11:34:20;;;;;;;30.73;23.08;;;;;;;21.03;99.94;101149.59;5008933;28;20529;-41
2022/08/17 11:37:00;;;;;;;25.88;21.92;;;;;;;21.04;99.11;101148.53;5008929;28;20022;-41
2022/08/17 11:40:05;;;;;;;29.70;23.33;;;;;;;21.11;99.05;101156.59;5008889;28;20485;-41
2022/08/17 11:42:42;;;;;;;31.00;24.50;;;;;;;21.11;98.52;101162.88;5006928;28;20046;-41
2022/08/17 11:45:29;;;;;;;;;;;;;;;21.01;96.95;101170.91;5014903;28;20404;-41
2022/08/17 11:51:35;;;;;;;33.33;25.05;;;;;;;20.84;98.40;101179.06;5013120;28;20105;-41
2022/08/17 11:54:08;;;;;;;29.30;23.70;;;;;;;20.74;97.42;101178.84;5002249;28;20568;-41